UNNT 160800Z 05005MPS CAVOK 29/17 Q1006 R07/090070 R34/////// NOSIG RMK QFE744/0993
QNH:(hPa/inHg/mmHg)1006 / 29.71 / 755
QFE:(hPa/inHg/mmHg)992 / 29.31 / 744
Temperature29
Dew Point17
Visibility> 10000
WeatherCAVOK
Cloud Cover
Transition Altitude6000 ft.
Transition LevelFL80
SQUAWK